createdAt,value
2018-10-21T00:02:08.970Z,17.07
2018-10-21T00:04:41.918Z,17.83
2018-10-21T00:07:11.126Z,18.80
2018-10-21T00:09:46.105Z,18.10
2018-10-21T00:19:05.005Z,20.27
2018-10-21T00:21:34.200Z,20.70
2018-10-21T00:24:02.883Z,21.10
2018-10-21T00:26:32.768Z,21.47
2018-10-21T00:29:01.453Z,22.30
2018-10-21T00:31:30.652Z,21.50
2018-10-21T00:33:59.481Z,20.87
2018-10-21T00:36:28.778Z,21.03
2018-10-21T00:39:03.357Z,22.83
2018-10-21T00:41:32.131Z,23.13
2018-10-21T00:44:05.393Z,22.40
2018-10-21T00:46:34.100Z,23.17
2018-10-21T00:49:08.548Z,23.23
2018-10-21T00:51:38.360Z,22.73
2018-10-21T00:54:16.300Z,22.50
2018-10-21T00:56:46.660Z,22.27
2018-10-21T00:59:15.500Z,23.07
2018-10-21T01:01:44.269Z,23.63
2018-10-21T01:04:18.798Z,21.93
2018-10-21T01:06:47.545Z,22.87
2018-10-21T01:09:20.639Z,22.17
2018-10-21T01:11:49.757Z,23.40
2018-10-21T01:14:22.909Z,22.83
2018-10-21T01:16:52.181Z,22.23
2018-10-21T01:19:26.129Z,21.67
2018-10-21T01:21:54.856Z,23.33
2018-10-21T01:24:27.550Z,20.97
2018-10-21T01:26:57.023Z,21.40
2018-10-21T01:29:31.293Z,20.97
2018-10-21T01:32:00.516Z,20.50
2018-10-21T01:34:33.237Z,21.47
2018-10-21T01:37:02.751Z,19.47
2018-10-21T01:40:45.240Z,20.17
2018-10-21T01:43:16.105Z,18.50
2018-10-21T01:45:45.567Z,19.77
2018-10-21T01:48:15.523Z,18.20
2018-10-21T01:50:44.676Z,16.93
2018-10-21T01:53:14.268Z,16.70
2018-10-21T01:55:47.038Z,16.97
2018-10-21T01:58:16.237Z,16.97
2018-10-21T02:00:49.903Z,19.43
2018-10-21T02:03:19.257Z,16.67
2018-10-21T02:05:53.829Z,16.07
2018-10-21T02:08:23.308Z,18.23
2018-10-21T02:10:54.733Z,17.40
2018-10-21T02:13:23.471Z,18.53
2018-10-21T02:15:58.099Z,15.77
2018-10-21T02:18:26.776Z,15.77
2018-10-21T02:21:01.098Z,19.63
2018-10-21T02:23:30.609Z,21.07
2018-10-21T02:26:04.309Z,20.93
2018-10-21T02:28:33.484Z,19.57
2018-10-21T02:31:08.097Z,21.50
2018-10-21T02:33:37.364Z,22.07
2018-10-21T02:36:11.934Z,21.93
2018-10-21T02:38:41.622Z,20.67
2018-10-21T02:41:18.429Z,22.27
2018-10-21T02:43:47.841Z,20.33
2018-10-21T02:46:17.425Z,19.07
2018-10-21T02:48:46.605Z,19.73
2018-10-21T02:51:19.162Z,17.73
2018-10-21T02:53:48.684Z,17.13
2018-10-21T02:56:22.025Z,19.70
2018-10-21T02:58:51.276Z,20.20
2018-10-21T03:01:33.136Z,19.97
2018-10-21T03:04:01.860Z,19.50
2018-10-21T03:06:31.162Z,19.77
2018-10-21T03:09:00.703Z,19.13
2018-10-21T03:11:29.929Z,19.07
2018-10-21T03:13:58.611Z,21.60
2018-10-21T03:16:41.102Z,23.53
2018-10-21T03:19:10.372Z,21.83
2018-10-21T03:21:39.713Z,19.23
2018-10-21T03:24:08.749Z,22.07
2018-10-21T03:26:39.041Z,22.57
2018-10-21T03:29:07.727Z,23.60
2018-10-21T03:31:39.818Z,23.43
2018-10-21T03:34:09.218Z,23.87
2018-10-21T03:36:42.361Z,23.90
2018-10-21T03:39:12.140Z,23.23
2018-10-21T03:41:45.444Z,23.87
2018-10-21T03:44:14.646Z,23.23
2018-10-21T03:46:48.012Z,22.53
2018-10-21T03:49:16.712Z,23.20
2018-10-21T03:51:49.824Z,24.03
2018-10-21T03:54:18.808Z,23.20
2018-10-21T03:56:52.656Z,23.93
2018-10-21T03:59:21.385Z,24.10
2018-10-21T04:01:55.588Z,25.47
2018-10-21T04:04:24.267Z,24.60
2018-10-21T04:06:57.652Z,24.67
2018-10-21T04:09:27.092Z,24.97
2018-10-21T04:12:00.499Z,24.83
2018-10-21T04:14:29.704Z,24.40
2018-10-21T04:17:03.464Z,25.60
2018-10-21T04:19:32.655Z,24.90
2018-10-21T04:24:36.341Z,23.33
2018-10-21T04:27:10.238Z,23.07
2018-10-21T04:29:39.266Z,24.03
2018-10-21T04:32:12.909Z,25.03
2018-10-21T04:34:42.122Z,25.73
2018-10-21T04:39:29.237Z,24.07
2018-10-21T04:41:58.780Z,24.93
2018-10-21T04:44:28.561Z,24.70
2018-10-21T04:46:57.369Z,24.03
2018-10-21T04:49:26.613Z,23.63
2018-10-21T04:51:55.862Z,23.10
2018-10-21T04:54:29.298Z,23.60
2018-10-21T04:56:58.516Z,22.33
2018-10-21T04:59:29.384Z,23.30
2018-10-21T05:01:58.888Z,22.93
2018-10-21T05:04:32.313Z,23.97
2018-10-21T05:07:01.699Z,22.90
2018-10-21T05:09:34.945Z,22.77
2018-10-21T05:12:04.273Z,22.63
2018-10-21T05:14:37.115Z,23.27
2018-10-21T05:17:06.785Z,23.23
2018-10-21T05:19:39.335Z,21.93
2018-10-21T05:22:08.734Z,22.83
2018-10-21T05:24:42.133Z,24.00
2018-10-21T05:27:11.392Z,23.57
2018-10-21T05:29:45.151Z,22.70
2018-10-21T05:32:14.128Z,23.07
2018-10-21T05:34:47.826Z,22.27
2018-10-21T05:37:16.561Z,21.63
2018-10-21T05:39:50.297Z,22.97
2018-10-21T05:42:19.942Z,23.33
2018-10-21T05:44:54.545Z,22.40
2018-10-21T05:47:23.284Z,22.37
2018-10-21T05:49:57.593Z,23.67
2018-10-21T05:52:26.793Z,23.10
2018-10-21T05:55:01.309Z,24.70
2018-10-21T05:57:30.550Z,23.13
2018-10-21T06:00:05.561Z,23.13
2018-10-21T06:02:35.037Z,25.33
2018-10-21T06:05:10.244Z,22.67
2018-10-21T06:07:39.472Z,21.03
2018-10-21T06:10:11.591Z,23.50
2018-10-21T06:12:40.812Z,23.60
2018-10-21T06:15:13.325Z,23.93
2018-10-21T06:17:45.810Z,23.37
2018-10-21T06:20:24.051Z,21.83
2018-10-21T06:22:53.975Z,21.60
2018-10-21T06:25:23.206Z,19.60
2018-10-21T06:27:52.412Z,19.87
2018-10-21T06:30:21.453Z,20.87
2018-10-21T06:32:50.156Z,21.43
2018-10-21T06:35:21.872Z,19.83
2018-10-21T06:37:51.196Z,19.87
2018-10-21T06:40:24.217Z,19.27
2018-10-21T06:42:53.200Z,20.40
2018-10-21T06:45:27.960Z,19.97
2018-10-21T06:47:56.685Z,19.87
2018-10-21T06:50:29.783Z,19.87
2018-10-21T06:52:59.011Z,19.23
2018-10-21T06:55:31.712Z,20.53
2018-10-21T06:58:00.892Z,20.20
2018-10-21T07:00:35.207Z,19.70
2018-10-21T07:03:04.320Z,19.97
2018-10-21T07:06:20.177Z,19.40
2018-10-21T07:08:50.836Z,19.47
2018-10-21T07:11:19.567Z,20.10
2018-10-21T07:13:48.992Z,22.07
2018-10-21T07:16:19.150Z,22.13
2018-10-21T07:18:49.128Z,21.27
2018-10-21T07:21:18.659Z,20.33
2018-10-21T07:23:48.849Z,20.63
2018-10-21T07:26:17.598Z,19.57
2018-10-21T07:28:51.591Z,18.60
2018-10-21T07:31:22.480Z,20.17
2018-10-21T07:33:55.265Z,16.47
2018-10-21T07:36:24.718Z,17.63
2018-10-21T07:38:57.913Z,16.70
2018-10-21T07:41:26.666Z,17.30
2018-10-21T07:44:00.583Z,16.63
2018-10-21T07:46:30.564Z,17.60
2018-10-21T07:49:02.950Z,17.00
2018-10-21T07:51:31.712Z,17.27
2018-10-21T07:54:11.592Z,16.83
2018-10-21T07:56:40.304Z,16.20
2018-10-21T07:59:12.335Z,16.40
2018-10-21T08:01:41.755Z,16.93
2018-10-21T08:04:13.655Z,17.90
2018-10-21T08:06:56.920Z,17.03
2018-10-21T08:09:26.429Z,17.73
2018-10-21T08:11:56.022Z,17.60
2018-10-21T08:14:25.571Z,17.43
2018-10-21T08:16:54.744Z,17.37
2018-10-21T08:19:24.800Z,17.10
2018-10-21T08:21:55.914Z,19.40
2018-10-21T08:24:26.496Z,16.60
2018-10-21T08:26:56.896Z,16.97
2018-10-21T08:29:30.011Z,17.73
2018-10-21T08:31:58.840Z,15.97
2018-10-21T08:34:33.964Z,16.20
2018-10-21T08:37:03.170Z,16.53
2018-10-21T08:39:32.688Z,16.43
2018-10-21T08:42:02.176Z,16.37
2018-10-21T08:44:34.723Z,14.87
2018-10-21T08:47:03.985Z,14.87
2018-10-21T08:49:38.201Z,16.33
2018-10-21T08:52:06.964Z,19.43
2018-10-21T08:54:40.489Z,17.57
2018-10-21T08:57:10.564Z,15.63
2018-10-21T08:59:42.432Z,17.17
2018-10-21T09:02:11.940Z,16.50
2018-10-21T09:04:44.600Z,15.03
2018-10-21T09:07:13.380Z,15.03
2018-10-21T09:09:47.342Z,16.60
2018-10-21T09:12:16.498Z,15.63
2018-10-21T09:14:50.387Z,13.77
2018-10-21T09:17:19.648Z,14.97
2018-10-21T09:19:53.036Z,14.83
2018-10-21T09:22:21.721Z,14.50
2018-10-21T09:27:24.593Z,14.07
2018-10-21T09:29:57.742Z,14.03
2018-10-21T09:32:27.846Z,14.03
2018-10-21T09:35:02.662Z,13.20
2018-10-21T09:37:31.498Z,12.77
2018-10-21T09:40:04.701Z,13.03
2018-10-21T09:42:33.440Z,13.47
2018-10-21T09:45:05.795Z,13.50
2018-10-21T09:47:36.396Z,13.63
2018-10-21T09:52:39.486Z,13.20
2018-10-21T09:55:14.136Z,13.70
2018-10-21T09:57:43.105Z,13.37
2018-10-21T10:00:22.388Z,12.93
2018-10-21T10:02:56.196Z,13.70
2018-10-21T10:05:25.296Z,13.20
2018-10-21T10:07:54.776Z,14.23
2018-10-21T10:10:24.614Z,12.03
2018-10-21T10:12:54.118Z,13.77
2018-10-21T10:18:03.457Z,13.10
2018-10-21T10:20:33.053Z,12.73
2018-10-21T10:23:03.130Z,13.73
2018-10-21T10:25:33.250Z,12.17
2018-10-21T10:28:02.358Z,11.83
2018-10-21T10:30:34.110Z,12.50
2018-10-21T10:33:02.782Z,13.00
2018-10-21T10:35:43.782Z,12.50
2018-10-21T10:38:12.646Z,14.47
2018-10-21T10:40:42.221Z,12.37
2018-10-21T10:43:11.980Z,13.47
2018-10-21T10:45:42.133Z,12.87
2018-10-21T10:48:12.252Z,12.40
2018-10-21T10:50:49.308Z,14.10
2018-10-21T10:53:18.021Z,12.50
2018-10-21T10:55:48.032Z,13.40
2018-10-21T10:58:17.631Z,11.30
2018-10-21T11:00:49.921Z,11.07
2018-10-21T11:03:19.577Z,11.73
2018-10-21T11:05:53.468Z,11.07
2018-10-21T11:08:23.532Z,9.80
2018-10-21T11:10:57.393Z,10.30
2018-10-21T11:13:26.609Z,9.33
2018-10-21T11:15:58.785Z,9.77
2018-10-21T11:18:28.718Z,10.97
2018-10-21T11:21:02.984Z,10.10
2018-10-21T11:23:32.365Z,9.37
2018-10-21T11:26:04.895Z,8.97
2018-10-21T11:28:34.609Z,10.07
2018-10-21T11:31:09.675Z,9.20
2018-10-21T11:33:38.392Z,10.10
2018-10-21T11:36:19.834Z,10.00
2018-10-21T11:38:49.209Z,8.07
2018-10-21T11:41:17.981Z,8.23
2018-10-21T11:43:46.768Z,8.93
2018-10-21T11:46:18.599Z,6.67
2018-10-21T11:48:47.685Z,8.07
2018-10-21T11:51:21.238Z,6.70
2018-10-21T11:53:50.060Z,7.30
2018-10-21T11:56:22.847Z,6.90
2018-10-21T11:58:51.536Z,6.20
2018-10-21T12:01:25.137Z,6.20
2018-10-21T12:03:54.739Z,7.20
2018-10-21T12:06:29.117Z,6.07
2018-10-21T12:08:58.824Z,6.60
2018-10-21T12:11:30.589Z,7.13
2018-10-21T12:13:59.777Z,5.77
2018-10-21T12:16:32.953Z,4.97
2018-10-21T12:19:01.662Z,6.43
2018-10-21T12:21:35.263Z,5.20
2018-10-21T12:24:04.590Z,5.47
2018-10-21T12:26:39.090Z,5.40
2018-10-21T12:29:08.285Z,5.33
2018-10-21T12:31:40.320Z,5.87
2018-10-21T12:34:09.084Z,5.27
2018-10-21T12:36:42.754Z,4.97
2018-10-21T12:39:12.496Z,5.00
2018-10-21T12:41:46.083Z,5.30
2018-10-21T12:44:15.584Z,5.87
2018-10-21T12:46:49.694Z,5.03
2018-10-21T12:49:18.493Z,5.23
2018-10-21T12:51:53.102Z,5.03
2018-10-21T12:54:22.373Z,6.70
2018-10-21T12:56:56.744Z,5.77
2018-10-21T12:59:25.946Z,5.50
2018-10-21T13:01:59.736Z,5.57
2018-10-21T13:04:29.233Z,5.33
2018-10-21T13:07:03.268Z,4.80
2018-10-21T13:09:32.575Z,5.00
2018-10-21T13:12:05.730Z,7.13
2018-10-21T13:14:34.520Z,6.90
2018-10-21T13:17:10.797Z,4.80
2018-10-21T13:19:40.112Z,4.30
2018-10-21T13:22:22.210Z,4.60
2018-10-21T13:24:50.929Z,5.60
2018-10-21T13:27:20.185Z,4.83
2018-10-21T13:29:50.033Z,4.73
2018-10-21T13:32:19.422Z,4.03
2018-10-21T13:34:48.228Z,4.70
2018-10-21T13:37:20.568Z,4.40
2018-10-21T13:39:49.804Z,4.63
2018-10-21T13:42:21.579Z,4.73
2018-10-21T13:44:51.953Z,5.60
2018-10-21T13:47:25.820Z,5.10
2018-10-21T13:49:55.090Z,5.47
2018-10-21T13:52:27.226Z,5.20
2018-10-21T13:54:56.459Z,4.40
2018-10-21T13:57:28.951Z,4.90
2018-10-21T13:59:58.048Z,4.27
2018-10-21T14:02:32.234Z,4.57
2018-10-21T14:05:01.958Z,4.37
2018-10-21T14:07:35.042Z,4.60
2018-10-21T14:10:04.577Z,4.93
2018-10-21T14:12:37.713Z,4.47
2018-10-21T14:15:07.530Z,4.47
2018-10-21T14:17:40.213Z,4.80
2018-10-21T14:20:11.341Z,5.43
2018-10-21T14:22:42.807Z,4.40
2018-10-21T14:25:11.526Z,5.83
2018-10-21T14:30:17.255Z,4.00
2018-10-21T14:32:48.276Z,5.67
2018-10-21T14:35:17.981Z,5.30
2018-10-21T14:38:00.081Z,5.63
2018-10-21T14:40:29.519Z,8.13
2018-10-21T14:42:58.997Z,8.90
2018-10-21T14:45:28.244Z,4.30
2018-10-21T14:47:58.943Z,3.90
2018-10-21T14:50:28.172Z,4.10
2018-10-21T14:53:01.024Z,4.23
2018-10-21T14:55:30.214Z,3.50
2018-10-21T14:58:03.100Z,3.30
2018-10-21T15:00:32.181Z,3.63
2018-10-21T15:03:05.791Z,3.13
2018-10-21T15:05:35.025Z,2.90
2018-10-21T15:08:10.680Z,3.73
2018-10-21T15:10:39.356Z,3.23
2018-10-21T15:13:13.524Z,3.53
2018-10-21T15:15:42.542Z,3.23
2018-10-21T15:18:16.416Z,2.87
2018-10-21T15:20:45.517Z,2.97
2018-10-21T15:23:17.557Z,2.97
2018-10-21T15:25:47.280Z,3.33
2018-10-21T15:28:19.903Z,3.23
2018-10-21T15:30:48.945Z,3.10
2018-10-21T15:33:22.330Z,3.07
2018-10-21T15:35:51.072Z,3.10
2018-10-21T15:38:27.101Z,3.67
2018-10-21T15:40:56.299Z,3.07
2018-10-21T15:43:29.171Z,3.20
2018-10-21T15:45:58.248Z,2.90
2018-10-21T15:48:31.529Z,2.80
2018-10-21T15:51:00.792Z,2.70
2018-10-21T15:53:33.280Z,3.03
2018-10-21T15:56:02.332Z,3.60
2018-10-21T15:58:36.774Z,3.20
2018-10-21T16:01:06.508Z,3.50
2018-10-21T16:06:14.580Z,5.27
2018-10-21T16:08:43.303Z,5.70
2018-10-21T16:11:12.012Z,5.00
2018-10-21T16:13:45.180Z,6.80
2018-10-21T16:16:14.017Z,6.20
2018-10-21T16:18:49.916Z,5.83
2018-10-21T16:21:19.447Z,4.47
2018-10-21T16:23:50.410Z,4.87
2018-10-21T16:26:19.624Z,5.00
2018-10-21T16:28:53.459Z,5.60
2018-10-21T16:31:23.108Z,6.57
2018-10-21T16:33:56.907Z,5.47
2018-10-21T16:36:26.121Z,6.03
2018-10-21T16:39:00.285Z,5.97
2018-10-21T16:41:32.784Z,5.23
2018-10-21T16:44:02.760Z,9.57
2018-10-21T16:46:32.123Z,6.60
2018-10-21T16:49:06.395Z,9.73
2018-10-21T16:51:36.010Z,14.67
2018-10-21T16:54:10.986Z,13.50
2018-10-21T16:56:40.341Z,18.10
2018-10-21T16:59:13.825Z,14.73
2018-10-21T17:01:42.800Z,11.40
2018-10-21T17:04:16.211Z,9.97
2018-10-21T17:06:45.463Z,7.60
2018-10-21T17:09:19.152Z,6.17
2018-10-21T17:11:48.349Z,5.03
2018-10-21T17:14:21.734Z,4.80
2018-10-21T17:16:57.433Z,5.67
2018-10-21T17:19:26.144Z,5.97
2018-10-21T17:21:54.950Z,5.67
2018-10-21T17:24:25.576Z,4.70
2018-10-21T17:26:54.581Z,4.73
2018-10-21T17:29:30.261Z,4.60
2018-10-21T17:31:59.614Z,4.87
2018-10-21T17:34:31.711Z,4.43
2018-10-21T17:37:00.813Z,5.00
2018-10-21T17:39:32.655Z,5.70
2018-10-21T17:42:02.049Z,6.10
2018-10-21T17:44:35.934Z,5.50
2018-10-21T17:47:05.775Z,6.20
2018-10-21T17:49:41.401Z,6.30
2018-10-21T17:52:10.511Z,5.87
2018-10-21T17:54:42.124Z,4.93
2018-10-21T17:57:13.657Z,5.90
2018-10-21T17:59:43.832Z,6.10
2018-10-21T18:02:15.237Z,6.37
2018-10-21T18:04:48.200Z,6.53
2018-10-21T18:07:17.709Z,6.80
2018-10-21T18:09:51.948Z,6.33
2018-10-21T18:12:20.930Z,5.90
2018-10-21T18:14:54.769Z,6.03
2018-10-21T18:17:24.953Z,5.37
2018-10-21T18:19:55.847Z,4.93
2018-10-21T18:22:26.777Z,4.70
2018-10-21T18:25:00.064Z,5.37
2018-10-21T18:27:29.513Z,5.47
2018-10-21T18:30:03.095Z,5.57
2018-10-21T18:32:32.881Z,6.47
2018-10-21T18:35:07.782Z,7.60
2018-10-21T18:37:38.363Z,7.50
2018-10-21T18:40:09.249Z,6.13
2018-10-21T18:42:37.963Z,7.93
2018-10-21T18:45:14.338Z,8.20
2018-10-21T18:47:44.460Z,7.70
2018-10-21T18:50:14.967Z,28.93
2018-10-21T18:52:44.284Z,9.97
2018-10-21T18:55:20.441Z,9.57
2018-10-21T18:57:50.110Z,10.03
2018-10-21T19:00:20.984Z,10.70
2018-10-21T19:02:50.437Z,12.07
2018-10-21T19:05:23.773Z,11.70
2018-10-21T19:07:52.952Z,10.80
2018-10-21T19:10:25.608Z,26.17
2018-10-21T19:13:00.049Z,14.83
2018-10-21T19:15:27.218Z,14.80
2018-10-21T19:17:57.005Z,11.93
2018-10-21T19:20:30.170Z,13.07
2018-10-21T19:22:59.365Z,13.70
2018-10-21T19:25:41.341Z,11.27
2018-10-21T19:28:10.956Z,12.30
2018-10-21T19:30:39.661Z,11.00
2018-10-21T19:33:09.678Z,12.90
2018-10-21T19:35:39.869Z,10.90
2018-10-21T19:38:08.556Z,10.83
2018-10-21T19:40:41.169Z,9.47
2018-10-21T19:43:10.829Z,9.23
2018-10-21T19:45:46.435Z,8.80
2018-10-21T19:48:15.638Z,7.67
2018-10-21T19:50:50.010Z,7.60
2018-10-21T19:53:21.307Z,7.57
2018-10-21T19:55:50.109Z,7.63
2018-10-21T19:58:19.310Z,8.03
2018-10-21T20:00:51.145Z,8.07
2018-10-21T20:03:20.358Z,7.83
2018-10-21T20:05:57.567Z,7.87
2018-10-21T20:08:27.289Z,9.90
2018-10-21T20:10:57.939Z,9.50
2018-10-21T20:13:27.316Z,7.90
2018-10-21T20:16:00.413Z,7.20
2018-10-21T20:18:29.140Z,8.37
2018-10-21T20:21:03.056Z,8.10
2018-10-21T20:23:32.010Z,6.77
2018-10-21T20:26:05.718Z,7.27
2018-10-21T20:28:35.688Z,8.70
2018-10-21T20:31:10.748Z,8.20
2018-10-21T20:33:39.516Z,8.37
2018-10-21T20:36:15.031Z,8.00
2018-10-21T20:38:44.238Z,8.37
2018-10-21T20:41:17.562Z,9.00
2018-10-21T20:43:46.634Z,13.37
2018-10-21T20:46:20.432Z,12.40
2018-10-21T20:48:49.634Z,16.03
2018-10-21T20:51:24.464Z,12.33
2018-10-21T20:53:53.629Z,10.00
2018-10-21T20:56:27.788Z,8.57
2018-10-21T20:58:56.978Z,9.00
2018-10-21T21:01:28.917Z,9.70
2018-10-21T21:03:57.998Z,9.80
2018-10-21T21:06:32.364Z,9.00
2018-10-21T21:09:01.653Z,9.60
2018-10-21T21:11:36.713Z,9.83
2018-10-21T21:14:05.532Z,10.07
2018-10-21T21:16:41.545Z,9.93
2018-10-21T21:19:11.342Z,11.40
2018-10-21T21:21:45.461Z,11.20
2018-10-21T21:24:14.695Z,10.70
2018-10-21T21:26:50.596Z,10.50
2018-10-21T21:29:19.789Z,16.37
2018-10-21T21:31:53.468Z,12.83
2018-10-21T21:34:22.650Z,11.97
2018-10-21T21:36:56.016Z,12.53
2018-10-21T21:39:25.509Z,14.90
2018-10-21T21:42:00.153Z,11.87
2018-10-21T21:44:28.885Z,10.40
2018-10-21T21:47:02.421Z,9.90
2018-10-21T21:49:31.877Z,10.30
2018-10-21T21:54:35.940Z,12.20
2018-10-21T21:59:39.094Z,14.83
2018-10-21T22:02:08.287Z,14.43
2018-10-21T22:04:37.799Z,13.70
2018-10-21T22:07:07.022Z,13.90
2018-10-21T22:09:36.222Z,14.53
2018-10-21T22:12:05.323Z,12.97
2018-10-21T22:14:34.040Z,24.63
2018-10-21T22:17:03.577Z,11.13
2018-10-21T22:19:33.045Z,9.30
2018-10-21T22:22:02.342Z,10.27
2018-10-21T22:24:31.542Z,10.97
2018-10-21T22:27:00.514Z,13.67
2018-10-21T22:29:30.022Z,10.23
2018-10-21T22:32:00.239Z,11.67
2018-10-21T22:34:33.553Z,11.83
2018-10-21T22:37:02.817Z,10.30
2018-10-21T22:39:36.505Z,13.83
2018-10-21T22:42:06.791Z,15.07
2018-10-21T22:44:39.489Z,9.40
2018-10-21T22:47:08.172Z,9.10
2018-10-21T22:49:41.721Z,8.20
2018-10-21T22:52:10.587Z,8.53
2018-10-21T22:54:44.360Z,8.17
2018-10-21T22:57:19.274Z,9.00
2018-10-21T22:59:50.073Z,8.07
2018-10-21T23:02:19.316Z,8.63
2018-10-21T23:04:52.193Z,8.47
2018-10-21T23:07:21.395Z,15.03
2018-10-21T23:09:55.738Z,10.43
2018-10-21T23:12:24.411Z,8.30
2018-10-21T23:14:58.226Z,8.80
2018-10-21T23:17:27.594Z,8.30
2018-10-21T23:20:00.825Z,8.10
2018-10-21T23:22:30.021Z,11.03
2018-10-21T23:25:02.536Z,8.20
2018-10-21T23:27:31.211Z,8.13
2018-10-21T23:30:05.061Z,8.40
2018-10-21T23:32:33.796Z,7.73
2018-10-21T23:35:07.941Z,7.60
2018-10-21T23:37:38.075Z,8.27
2018-10-21T23:40:11.747Z,7.97
2018-10-21T23:42:41.013Z,7.90
2018-10-21T23:45:14.920Z,8.37
2018-10-21T23:47:43.829Z,7.57
2018-10-21T23:50:17.281Z,6.93
2018-10-21T23:52:46.521Z,7.87
2018-10-21T23:55:19.211Z,7.47
2018-10-21T23:57:48.751Z,8.57
